sensor_id;sensor_type;location;lat;lon;timestamp;temperature;humidity
39519;DHT22;25200;53.394;10.414;2023-04-15T00:00:49;9.50;80.80
39519;DHT22;25200;53.394;10.414;2023-04-15T00:03:16;9.50;80.90
39519;DHT22;25200;53.394;10.414;2023-04-15T00:05:41;9.50;80.90
39519;DHT22;25200;53.394;10.414;2023-04-15T00:08:07;9.50;80.80
39519;DHT22;25200;53.394;10.414;2023-04-15T00:10:33;9.50;81.00
39519;DHT22;25200;53.394;10.414;2023-04-15T00:12:59;9.50;80.90
39519;DHT22;25200;53.394;10.414;2023-04-15T00:15:25;9.50;80.90
39519;DHT22;25200;53.394;10.414;2023-04-15T00:17:51;9.50;81.00
39519;DHT22;25200;53.394;10.414;2023-04-15T00:20:17;9.50;81.10
39519;DHT22;25200;53.394;10.414;2023-04-15T00:22:43;9.40;81.10
39519;DHT22;25200;53.394;10.414;2023-04-15T00:25:08;9.40;81.10
39519;DHT22;25200;53.394;10.414;2023-04-15T00:27:34;9.40;81.00
39519;DHT22;25200;53.394;10.414;2023-04-15T00:30:00;9.40;81.10
39519;DHT22;25200;53.394;10.414;2023-04-15T00:32:26;9.40;81.10
39519;DHT22;25200;53.394;10.414;2023-04-15T00:34:52;9.40;81.20
39519;DHT22;25200;53.394;10.414;2023-04-15T00:37:18;9.40;81.10
39519;DHT22;25200;53.394;10.414;2023-04-15T00:39:43;9.40;81.10
39519;DHT22;25200;53.394;10.414;2023-04-15T00:42:09;9.40;81.20
39519;DHT22;25200;53.394;10.414;2023-04-15T00:44:35;9.40;81.20
39519;DHT22;25200;53.394;10.414;2023-04-15T00:47:01;9.40;81.00
39519;DHT22;25200;53.394;10.414;2023-04-15T00:49:28;9.40;81.10
39519;DHT22;25200;53.394;10.414;2023-04-15T00:51:54;9.40;81.10
39519;DHT22;25200;53.394;10.414;2023-04-15T00:54:20;9.40;81.10
39519;DHT22;25200;53.394;10.414;2023-04-15T00:56:46;9.40;81.10
39519;DHT22;25200;53.394;10.414;2023-04-15T00:59:12;9.40;81.10
39519;DHT22;25200;53.394;10.414;2023-04-15T01:01:38;9.40;81.10
39519;DHT22;25200;53.394;10.414;2023-04-15T01:04:05;9.40;81.20
39519;DHT22;25200;53.394;10.414;2023-04-15T01:06:31;9.40;81.20
39519;DHT22;25200;53.394;10.414;2023-04-15T01:08:58;9.40;81.10
39519;DHT22;25200;53.394;10.414;2023-04-15T01:11:24;9.40;81.30
39519;DHT22;25200;53.394;10.414;2023-04-15T01:13:51;9.40;81.20
39519;DHT22;25200;53.394;10.414;2023-04-15T01:16:18;9.40;81.20
39519;DHT22;25200;53.394;10.414;2023-04-15T01:18:44;9.40;81.40
39519;DHT22;25200;53.394;10.414;2023-04-15T01:21:10;9.30;81.30
39519;DHT22;25200;53.394;10.414;2023-04-15T01:23:37;9.40;81.30
39519;DHT22;25200;53.394;10.414;2023-04-15T01:26:04;9.40;81.30
39519;DHT22;25200;53.394;10.414;2023-04-15T01:28:30;9.40;81.40
39519;DHT22;25200;53.394;10.414;2023-04-15T01:31:13;9.40;81.30
39519;DHT22;25200;53.394;10.414;2023-04-15T01:33:40;9.30;81.20
39519;DHT22;25200;53.394;10.414;2023-04-15T01:36:07;9.40;81.30
39519;DHT22;25200;53.394;10.414;2023-04-15T01:38:34;9.30;81.30
39519;DHT22;25200;53.394;10.414;2023-04-15T01:41:00;9.40;81.30
39519;DHT22;25200;53.394;10.414;2023-04-15T01:43:26;9.40;81.20
39519;DHT22;25200;53.394;10.414;2023-04-15T01:45:53;9.40;81.30
39519;DHT22;25200;53.394;10.414;2023-04-15T01:48:18;9.40;81.10
39519;DHT22;25200;53.394;10.414;2023-04-15T01:50:44;9.40;81.30
39519;DHT22;25200;53.394;10.414;2023-04-15T01:53:10;9.40;81.20
39519;DHT22;25200;53.394;10.414;2023-04-15T01:55:36;9.30;81.20
39519;DHT22;25200;53.394;10.414;2023-04-15T01:58:02;9.30;81.30
39519;DHT22;25200;53.394;10.414;2023-04-15T02:00:28;9.30;81.30
39519;DHT22;25200;53.394;10.414;2023-04-15T02:02:54;9.30;81.30
39519;DHT22;25200;53.394;10.414;2023-04-15T02:05:20;9.30;81.30
39519;DHT22;25200;53.394;10.414;2023-04-15T02:07:45;9.30;81.30
39519;DHT22;25200;53.394;10.414;2023-04-15T02:10:11;9.40;81.40
39519;DHT22;25200;53.394;10.414;2023-04-15T02:12:41;9.40;81.40
39519;DHT22;25200;53.394;10.414;2023-04-15T02:15:07;9.40;81.40
39519;DHT22;25200;53.394;10.414;2023-04-15T02:17:34;9.30;81.30
39519;DHT22;25200;53.394;10.414;2023-04-15T02:20:00;9.40;81.40
39519;DHT22;25200;53.394;10.414;2023-04-15T02:22:26;9.30;81.40
39519;DHT22;25200;53.394;10.414;2023-04-15T02:24:52;9.30;81.40
39519;DHT22;25200;53.394;10.414;2023-04-15T02:27:17;9.30;81.50
39519;DHT22;25200;53.394;10.414;2023-04-15T02:29:44;9.30;81.40
39519;DHT22;25200;53.394;10.414;2023-04-15T02:32:11;9.30;81.40
39519;DHT22;25200;53.394;10.414;2023-04-15T02:34:37;9.30;81.50
39519;DHT22;25200;53.394;10.414;2023-04-15T02:37:06;9.30;81.40
39519;DHT22;25200;53.394;10.414;2023-04-15T02:39:32;9.30;81.50
39519;DHT22;25200;53.394;10.414;2023-04-15T02:41:57;9.30;81.50
39519;DHT22;25200;53.394;10.414;2023-04-15T02:44:25;9.30;81.50
39519;DHT22;25200;53.394;10.414;2023-04-15T02:46:52;9.30;81.80
39519;DHT22;25200;53.394;10.414;2023-04-15T02:49:22;9.30;82.00
39519;DHT22;25200;53.394;10.414;2023-04-15T02:51:48;9.30;81.80
39519;DHT22;25200;53.394;10.414;2023-04-15T02:54:21;9.30;81.90
39519;DHT22;25200;53.394;10.414;2023-04-15T02:56:50;9.30;81.80
39519;DHT22;25200;53.394;10.414;2023-04-15T02:59:19;9.30;81.80
39519;DHT22;25200;53.394;10.414;2023-04-15T03:01:45;9.30;81.80
39519;DHT22;25200;53.394;10.414;2023-04-15T03:04:11;9.30;81.90
39519;DHT22;25200;53.394;10.414;2023-04-15T03:06:37;9.30;82.10
39519;DHT22;25200;53.394;10.414;2023-04-15T03:09:03;9.30;81.90
39519;DHT22;25200;53.394;10.414;2023-04-15T03:11:28;9.30;82.00
39519;DHT22;25200;53.394;10.414;2023-04-15T03:13:56;9.30;82.10
39519;DHT22;25200;53.394;10.414;2023-04-15T03:16:21;9.30;82.20
39519;DHT22;25200;53.394;10.414;2023-04-15T03:18:47;9.30;82.10
39519;DHT22;25200;53.394;10.414;2023-04-15T03:21:12;9.30;82.10
39519;DHT22;25200;53.394;10.414;2023-04-15T03:23:38;9.30;82.10
39519;DHT22;25200;53.394;10.414;2023-04-15T03:26:04;9.30;82.30
39519;DHT22;25200;53.394;10.414;2023-04-15T03:28:30;9.30;82.10
39519;DHT22;25200;53.394;10.414;2023-04-15T03:30:57;9.30;82.30
39519;DHT22;25200;53.394;10.414;2023-04-15T03:33:23;9.30;82.30
39519;DHT22;25200;53.394;10.414;2023-04-15T03:35:50;9.30;82.40
39519;DHT22;25200;53.394;10.414;2023-04-15T03:38:16;9.30;82.50
39519;DHT22;25200;53.394;10.414;2023-04-15T03:40:42;9.30;82.50
39519;DHT22;25200;53.394;10.414;2023-04-15T03:43:07;9.30;82.60
39519;DHT22;25200;53.394;10.414;2023-04-15T03:45:33;9.30;82.50
39519;DHT22;25200;53.394;10.414;2023-04-15T03:47:59;9.30;82.50
39519;DHT22;25200;53.394;10.414;2023-04-15T03:50:25;9.30;82.50
39519;DHT22;25200;53.394;10.414;2023-04-15T03:52:52;9.30;82.40
39519;DHT22;25200;53.394;10.414;2023-04-15T03:55:17;9.30;82.40
39519;DHT22;25200;53.394;10.414;2023-04-15T03:57:44;9.30;82.40
39519;DHT22;25200;53.394;10.414;2023-04-15T04:00:10;9.30;82.40
39519;DHT22;25200;53.394;10.414;2023-04-15T04:02:36;9.30;82.40
39519;DHT22;25200;53.394;10.414;2023-04-15T04:05:01;9.30;82.50
39519;DHT22;25200;53.394;10.414;2023-04-15T04:07:27;9.30;82.50
39519;DHT22;25200;53.394;10.414;2023-04-15T04:09:53;9.30;82.50
39519;DHT22;25200;53.394;10.414;2023-04-15T04:12:19;9.30;82.70
39519;DHT22;25200;53.394;10.414;2023-04-15T04:14:44;9.30;82.50
39519;DHT22;25200;53.394;10.414;2023-04-15T04:17:10;9.30;82.50
39519;DHT22;25200;53.394;10.414;2023-04-15T04:19:36;9.30;82.60
39519;DHT22;25200;53.394;10.414;2023-04-15T04:22:01;9.30;83.10
39519;DHT22;25200;53.394;10.414;2023-04-15T04:24:27;9.30;82.70
39519;DHT22;25200;53.394;10.414;2023-04-15T04:26:53;9.30;82.70
39519;DHT22;25200;53.394;10.414;2023-04-15T04:29:18;9.30;82.60
39519;DHT22;25200;53.394;10.414;2023-04-15T04:31:44;9.30;82.70
39519;DHT22;25200;53.394;10.414;2023-04-15T04:34:11;9.30;83.20
39519;DHT22;25200;53.394;10.414;2023-04-15T04:36:36;9.40;82.90
39519;DHT22;25200;53.394;10.414;2023-04-15T04:39:02;9.30;82.80
39519;DHT22;25200;53.394;10.414;2023-04-15T04:41:28;9.30;82.70
39519;DHT22;25200;53.394;10.414;2023-04-15T04:43:54;9.30;82.70
39519;DHT22;25200;53.394;10.414;2023-04-15T04:46:19;9.40;82.60
39519;DHT22;25200;53.394;10.414;2023-04-15T04:48:45;9.40;83.20
39519;DHT22;25200;53.394;10.414;2023-04-15T04:51:11;9.40;82.60
39519;DHT22;25200;53.394;10.414;2023-04-15T04:53:37;9.40;82.80
39519;DHT22;25200;53.394;10.414;2023-04-15T04:56:03;9.40;82.70
39519;DHT22;25200;53.394;10.414;2023-04-15T04:58:29;9.40;82.60
39519;DHT22;25200;53.394;10.414;2023-04-15T05:00:54;9.40;82.80
39519;DHT22;25200;53.394;10.414;2023-04-15T05:03:21;9.40;82.60
39519;DHT22;25200;53.394;10.414;2023-04-15T05:05:46;9.40;82.70
39519;DHT22;25200;53.394;10.414;2023-04-15T05:08:14;9.40;82.80
39519;DHT22;25200;53.394;10.414;2023-04-15T05:10:39;9.40;82.60
39519;DHT22;25200;53.394;10.414;2023-04-15T05:13:05;9.40;82.70
39519;DHT22;25200;53.394;10.414;2023-04-15T05:15:31;9.40;82.80
39519;DHT22;25200;53.394;10.414;2023-04-15T05:17:57;9.40;82.80
39519;DHT22;25200;53.394;10.414;2023-04-15T05:20:23;9.40;82.80
39519;DHT22;25200;53.394;10.414;2023-04-15T05:22:48;9.40;82.80
39519;DHT22;25200;53.394;10.414;2023-04-15T05:25:14;9.40;82.70
39519;DHT22;25200;53.394;10.414;2023-04-15T05:27:40;9.40;82.70
39519;DHT22;25200;53.394;10.414;2023-04-15T05:30:07;9.40;82.80
39519;DHT22;25200;53.394;10.414;2023-04-15T05:32:33;9.40;83.00
39519;DHT22;25200;53.394;10.414;2023-04-15T05:34:59;9.40;83.00
39519;DHT22;25200;53.394;10.414;2023-04-15T05:37:24;9.40;82.80
39519;DHT22;25200;53.394;10.414;2023-04-15T05:39:50;9.40;82.80
39519;DHT22;25200;53.394;10.414;2023-04-15T05:42:16;9.40;83.00
39519;DHT22;25200;53.394;10.414;2023-04-15T05:44:42;9.50;82.90
39519;DHT22;25200;53.394;10.414;2023-04-15T05:47:08;9.50;83.20
39519;DHT22;25200;53.394;10.414;2023-04-15T05:49:34;9.50;83.20
39519;DHT22;25200;53.394;10.414;2023-04-15T05:52:00;9.50;83.20
39519;DHT22;25200;53.394;10.414;2023-04-15T05:54:26;9.50;83.20
39519;DHT22;25200;53.394;10.414;2023-04-15T05:56:53;9.50;83.20
39519;DHT22;25200;53.394;10.414;2023-04-15T05:59:18;9.50;83.50
39519;DHT22;25200;53.394;10.414;2023-04-15T06:01:44;9.50;83.30
39519;DHT22;25200;53.394;10.414;2023-04-15T06:04:10;9.50;83.30
39519;DHT22;25200;53.394;10.414;2023-04-15T06:06:38;9.50;83.30
39519;DHT22;25200;53.394;10.414;2023-04-15T06:09:04;9.60;83.80
39519;DHT22;25200;53.394;10.414;2023-04-15T06:11:30;9.60;83.60
39519;DHT22;25200;53.394;10.414;2023-04-15T06:13:56;9.50;83.40
39519;DHT22;25200;53.394;10.414;2023-04-15T06:16:21;9.60;83.90
39519;DHT22;25200;53.394;10.414;2023-04-15T06:18:48;9.60;83.90
39519;DHT22;25200;53.394;10.414;2023-04-15T06:21:14;9.60;83.60
39519;DHT22;25200;53.394;10.414;2023-04-15T06:23:40;9.60;83.60
39519;DHT22;25200;53.394;10.414;2023-04-15T06:26:06;9.60;84.10
39519;DHT22;25200;53.394;10.414;2023-04-15T06:28:32;9.50;83.70
39519;DHT22;25200;53.394;10.414;2023-04-15T06:30:57;9.60;83.90
39519;DHT22;25200;53.394;10.414;2023-04-15T06:33:23;9.60;83.90
39519;DHT22;25200;53.394;10.414;2023-04-15T06:35:49;9.60;83.80
39519;DHT22;25200;53.394;10.414;2023-04-15T06:38:15;9.60;83.80
39519;DHT22;25200;53.394;10.414;2023-04-15T06:40:41;9.60;84.20
39519;DHT22;25200;53.394;10.414;2023-04-15T06:43:07;9.60;83.90
39519;DHT22;25200;53.394;10.414;2023-04-15T06:45:33;9.60;84.00
39519;DHT22;25200;53.394;10.414;2023-04-15T06:47:59;9.60;83.80
39519;DHT22;25200;53.394;10.414;2023-04-15T06:50:25;9.60;83.90
39519;DHT22;25200;53.394;10.414;2023-04-15T06:52:52;9.70;83.80
39519;DHT22;25200;53.394;10.414;2023-04-15T06:55:18;9.70;83.80
39519;DHT22;25200;53.394;10.414;2023-04-15T06:57:44;9.70;83.80
39519;DHT22;25200;53.394;10.414;2023-04-15T07:00:10;9.70;84.40
39519;DHT22;25200;53.394;10.414;2023-04-15T07:02:36;9.70;84.60
39519;DHT22;25200;53.394;10.414;2023-04-15T07:05:02;9.70;84.40
39519;DHT22;25200;53.394;10.414;2023-04-15T07:07:29;9.70;84.80
39519;DHT22;25200;53.394;10.414;2023-04-15T07:09:54;9.70;84.30
39519;DHT22;25200;53.394;10.414;2023-04-15T07:12:20;9.70;84.40
39519;DHT22;25200;53.394;10.414;2023-04-15T07:14:46;9.70;84.70
39519;DHT22;25200;53.394;10.414;2023-04-15T07:17:12;9.70;84.50
39519;DHT22;25200;53.394;10.414;2023-04-15T07:19:37;9.70;84.90
39519;DHT22;25200;53.394;10.414;2023-04-15T07:22:03;9.80;84.40
39519;DHT22;25200;53.394;10.414;2023-04-15T07:24:29;9.80;85.00
39519;DHT22;25200;53.394;10.414;2023-04-15T07:26:55;9.80;85.50
39519;DHT22;25200;53.394;10.414;2023-04-15T07:29:23;9.80;84.90
39519;DHT22;25200;53.394;10.414;2023-04-15T07:31:48;9.90;85.00
39519;DHT22;25200;53.394;10.414;2023-04-15T07:34:14;9.90;85.10
39519;DHT22;25200;53.394;10.414;2023-04-15T07:36:41;9.90;85.50
39519;DHT22;25200;53.394;10.414;2023-04-15T07:39:06;9.90;85.20
39519;DHT22;25200;53.394;10.414;2023-04-15T07:41:32;10.00;85.20
39519;DHT22;25200;53.394;10.414;2023-04-15T07:43:58;10.00;85.70
39519;DHT22;25200;53.394;10.414;2023-04-15T07:46:24;10.00;85.30
39519;DHT22;25200;53.394;10.414;2023-04-15T07:48:52;10.10;85.30
39519;DHT22;25200;53.394;10.414;2023-04-15T07:51:18;10.10;85.60
39519;DHT22;25200;53.394;10.414;2023-04-15T07:53:46;10.10;85.20
39519;DHT22;25200;53.394;10.414;2023-04-15T07:56:11;10.20;84.80
39519;DHT22;25200;53.394;10.414;2023-04-15T07:58:37;10.20;85.00
39519;DHT22;25200;53.394;10.414;2023-04-15T08:01:04;10.30;84.90
39519;DHT22;25200;53.394;10.414;2023-04-15T08:03:29;10.30;84.90
39519;DHT22;25200;53.394;10.414;2023-04-15T08:05:56;10.30;84.90
39519;DHT22;25200;53.394;10.414;2023-04-15T08:08:21;10.30;84.60
39519;DHT22;25200;53.394;10.414;2023-04-15T08:10:47;10.30;84.60
39519;DHT22;25200;53.394;10.414;2023-04-15T08:13:13;10.40;84.70
39519;DHT22;25200;53.394;10.414;2023-04-15T08:15:39;10.40;84.60
39519;DHT22;25200;53.394;10.414;2023-04-15T08:18:04;10.40;84.60
39519;DHT22;25200;53.394;10.414;2023-04-15T08:20:30;10.40;84.70
39519;DHT22;25200;53.394;10.414;2023-04-15T08:22:56;10.50;84.80
39519;DHT22;25200;53.394;10.414;2023-04-15T08:25:22;10.50;84.70
39519;DHT22;25200;53.394;10.414;2023-04-15T08:27:48;10.50;85.30
39519;DHT22;25200;53.394;10.414;2023-04-15T08:30:14;10.50;85.00
39519;DHT22;25200;53.394;10.414;2023-04-15T08:32:41;10.50;84.90
39519;DHT22;25200;53.394;10.414;2023-04-15T08:35:07;10.60;85.00
39519;DHT22;25200;53.394;10.414;2023-04-15T08:37:33;10.60;85.80
39519;DHT22;25200;53.394;10.414;2023-04-15T08:39:59;10.60;84.90
39519;DHT22;25200;53.394;10.414;2023-04-15T08:42:30;10.60;85.40
39519;DHT22;25200;53.394;10.414;2023-04-15T08:44:59;10.60;85.50
39519;DHT22;25200;53.394;10.414;2023-04-15T08:47:29;10.70;85.80
39519;DHT22;25200;53.394;10.414;2023-04-15T08:49:57;10.70;86.00
39519;DHT22;25200;53.394;10.414;2023-04-15T08:52:27;10.80;85.70
39519;DHT22;25200;53.394;10.414;2023-04-15T08:54:56;10.90;85.60
39519;DHT22;25200;53.394;10.414;2023-04-15T08:57:26;10.90;85.60
39519;DHT22;25200;53.394;10.414;2023-04-15T08:59:55;11.00;85.90
39519;DHT22;25200;53.394;10.414;2023-04-15T09:02:25;11.00;85.20
39519;DHT22;25200;53.394;10.414;2023-04-15T09:04:52;11.10;85.40
39519;DHT22;25200;53.394;10.414;2023-04-15T09:07:17;11.10;85.60
39519;DHT22;25200;53.394;10.414;2023-04-15T09:09:43;11.10;85.40
39519;DHT22;25200;53.394;10.414;2023-04-15T09:12:10;11.20;85.60
39519;DHT22;25200;53.394;10.414;2023-04-15T09:14:39;11.20;85.50
39519;DHT22;25200;53.394;10.414;2023-04-15T09:17:05;11.20;85.30
39519;DHT22;25200;53.394;10.414;2023-04-15T09:19:34;11.30;85.40
39519;DHT22;25200;53.394;10.414;2023-04-15T09:22:01;11.40;85.90
39519;DHT22;25200;53.394;10.414;2023-04-15T09:24:35;11.50;85.50
39519;DHT22;25200;53.394;10.414;2023-04-15T09:27:02;11.60;85.30
39519;DHT22;25200;53.394;10.414;2023-04-15T09:29:28;11.70;85.00
39519;DHT22;25200;53.394;10.414;2023-04-15T09:31:54;11.90;85.00
39519;DHT22;25200;53.394;10.414;2023-04-15T09:34:20;12.00;85.10
39519;DHT22;25200;53.394;10.414;2023-04-15T09:36:55;12.20;85.40
39519;DHT22;25200;53.394;10.414;2023-04-15T09:39:21;12.20;85.00
39519;DHT22;25200;53.394;10.414;2023-04-15T09:42:06;12.40;84.90
39519;DHT22;25200;53.394;10.414;2023-04-15T09:44:32;12.50;84.60
39519;DHT22;25200;53.394;10.414;2023-04-15T09:46:58;12.70;84.50
39519;DHT22;25200;53.394;10.414;2023-04-15T09:49:23;12.80;84.50
39519;DHT22;25200;53.394;10.414;2023-04-15T09:51:49;13.00;84.40
39519;DHT22;25200;53.394;10.414;2023-04-15T09:54:19;13.10;84.40
39519;DHT22;25200;53.394;10.414;2023-04-15T09:56:47;13.30;84.20
39519;DHT22;25200;53.394;10.414;2023-04-15T09:59:13;13.40;84.30
39519;DHT22;25200;53.394;10.414;2023-04-15T10:01:41;13.50;84.30
39519;DHT22;25200;53.394;10.414;2023-04-15T10:04:08;13.50;84.00
39519;DHT22;25200;53.394;10.414;2023-04-15T10:06:35;13.50;83.90
39519;DHT22;25200;53.394;10.414;2023-04-15T10:09:01;13.50;84.00
39519;DHT22;25200;53.394;10.414;2023-04-15T10:11:29;13.60;84.00
39519;DHT22;25200;53.394;10.414;2023-04-15T10:13:56;13.70;84.20
39519;DHT22;25200;53.394;10.414;2023-04-15T10:16:26;13.70;84.10
39519;DHT22;25200;53.394;10.414;2023-04-15T10:18:55;13.70;83.90
39519;DHT22;25200;53.394;10.414;2023-04-15T10:21:21;13.70;83.90
39519;DHT22;25200;53.394;10.414;2023-04-15T10:23:48;13.70;83.90
39519;DHT22;25200;53.394;10.414;2023-04-15T10:26:15;13.80;84.20
39519;DHT22;25200;53.394;10.414;2023-04-15T10:28:42;13.90;84.10
39519;DHT22;25200;53.394;10.414;2023-04-15T10:31:11;13.90;83.90
39519;DHT22;25200;53.394;10.414;2023-04-15T10:33:38;14.00;84.00
39519;DHT22;25200;53.394;10.414;2023-04-15T10:36:05;14.10;84.20
39519;DHT22;25200;53.394;10.414;2023-04-15T10:38:36;14.30;84.20
39519;DHT22;25200;53.394;10.414;2023-04-15T10:51:32;14.80;83.70
39519;DHT22;25200;53.394;10.414;2023-04-15T10:54:00;14.90;83.80
39519;DHT22;25200;53.394;10.414;2023-04-15T10:56:29;15.00;83.80
39519;DHT22;25200;53.394;10.414;2023-04-15T10:58:58;15.10;83.60
39519;DHT22;25200;53.394;10.414;2023-04-15T11:10:02;15.50;83.40
39519;DHT22;25200;53.394;10.414;2023-04-15T11:12:35;15.50;83.50
39519;DHT22;25200;53.394;10.414;2023-04-15T11:15:42;15.60;82.90
39519;DHT22;25200;53.394;10.414;2023-04-15T11:20:45;15.40;82.60
39519;DHT22;25200;53.394;10.414;2023-04-15T11:23:12;15.40;82.80
39519;DHT22;25200;53.394;10.414;2023-04-15T11:25:39;15.30;82.60
39519;DHT22;25200;53.394;10.414;2023-04-15T11:28:05;15.30;83.10
39519;DHT22;25200;53.394;10.414;2023-04-15T11:30:33;15.40;83.30
39519;DHT22;25200;53.394;10.414;2023-04-15T11:33:05;15.50;83.40
39519;DHT22;25200;53.394;10.414;2023-04-15T11:35:31;15.60;83.50
39519;DHT22;25200;53.394;10.414;2023-04-15T11:37:57;15.80;83.20
39519;DHT22;25200;53.394;10.414;2023-04-15T11:40:25;15.90;83.20
39519;DHT22;25200;53.394;10.414;2023-04-15T11:43:14;15.90;82.90
39519;DHT22;25200;53.394;10.414;2023-04-15T11:45:55;15.80;82.40
39519;DHT22;25200;53.394;10.414;2023-04-15T11:48:23;15.80;82.20
39519;DHT22;25200;53.394;10.414;2023-04-15T11:50:57;15.70;82.30
39519;DHT22;25200;53.394;10.414;2023-04-15T11:53:24;15.60;82.50
39519;DHT22;25200;53.394;10.414;2023-04-15T11:55:59;15.50;82.00
39519;DHT22;25200;53.394;10.414;2023-04-15T11:58:25;15.50;82.50
39519;DHT22;25200;53.394;10.414;2023-04-15T12:00:59;15.60;82.60
39519;DHT22;25200;53.394;10.414;2023-04-15T12:03:25;15.60;82.70
39519;DHT22;25200;53.394;10.414;2023-04-15T12:06:17;15.60;82.50
39519;DHT22;25200;53.394;10.414;2023-04-15T12:16:42;15.90;82.70
39519;DHT22;25200;53.394;10.414;2023-04-15T12:19:16;15.90;82.90
39519;DHT22;25200;53.394;10.414;2023-04-15T12:21:46;16.00;83.50
39519;DHT22;25200;53.394;10.414;2023-04-15T12:24:13;16.00;82.50
39519;DHT22;25200;53.394;10.414;2023-04-15T12:29:14;16.10;82.40
39519;DHT22;25200;53.394;10.414;2023-04-15T12:31:52;16.00;82.00
39519;DHT22;25200;53.394;10.414;2023-04-15T12:34:29;15.90;81.70
39519;DHT22;25200;53.394;10.414;2023-04-15T12:36:55;15.90;81.90
39519;DHT22;25200;53.394;10.414;2023-04-15T12:39:26;15.80;81.70
39519;DHT22;25200;53.394;10.414;2023-04-15T12:41:53;15.70;81.90
39519;DHT22;25200;53.394;10.414;2023-04-15T12:44:22;15.70;81.80
39519;DHT22;25200;53.394;10.414;2023-04-15T12:46:49;15.70;82.00
39519;DHT22;25200;53.394;10.414;2023-04-15T12:49:14;15.70;82.00
39519;DHT22;25200;53.394;10.414;2023-04-15T12:51:41;15.70;82.20
39519;DHT22;25200;53.394;10.414;2023-04-15T12:54:06;15.70;81.90
39519;DHT22;25200;53.394;10.414;2023-04-15T12:56:32;15.60;81.40
39519;DHT22;25200;53.394;10.414;2023-04-15T12:58:58;15.60;81.80
39519;DHT22;25200;53.394;10.414;2023-04-15T13:01:24;15.60;81.70
39519;DHT22;25200;53.394;10.414;2023-04-15T13:03:50;15.60;81.70
39519;DHT22;25200;53.394;10.414;2023-04-15T13:06:16;15.60;81.90
39519;DHT22;25200;53.394;10.414;2023-04-15T13:08:42;15.60;81.50
39519;DHT22;25200;53.394;10.414;2023-04-15T13:11:08;15.60;81.60
39519;DHT22;25200;53.394;10.414;2023-04-15T13:13:33;15.60;81.70
39519;DHT22;25200;53.394;10.414;2023-04-15T13:15:59;15.60;81.20
39519;DHT22;25200;53.394;10.414;2023-04-15T13:18:25;15.50;81.50
39519;DHT22;25200;53.394;10.414;2023-04-15T13:20:51;15.60;81.70
39519;DHT22;25200;53.394;10.414;2023-04-15T13:23:17;15.60;81.90
39519;DHT22;25200;53.394;10.414;2023-04-15T13:25:42;15.60;81.80
39519;DHT22;25200;53.394;10.414;2023-04-15T13:28:10;15.60;81.70
39519;DHT22;25200;53.394;10.414;2023-04-15T13:30:37;15.60;81.10
39519;DHT22;25200;53.394;10.414;2023-04-15T13:33:03;15.60;81.50
39519;DHT22;25200;53.394;10.414;2023-04-15T13:35:30;15.70;81.30
39519;DHT22;25200;53.394;10.414;2023-04-15T13:37:56;15.80;81.60
39519;DHT22;25200;53.394;10.414;2023-04-15T13:40:22;15.80;81.30
39519;DHT22;25200;53.394;10.414;2023-04-15T13:42:47;15.90;81.40
39519;DHT22;25200;53.394;10.414;2023-04-15T13:45:13;15.90;80.60
39519;DHT22;25200;53.394;10.414;2023-04-15T13:47:39;16.00;81.10
39519;DHT22;25200;53.394;10.414;2023-04-15T13:50:05;15.90;80.90
39519;DHT22;25200;53.394;10.414;2023-04-15T13:52:31;16.00;81.20
39519;DHT22;25200;53.394;10.414;2023-04-15T13:54:57;16.00;80.90
39519;DHT22;25200;53.394;10.414;2023-04-15T13:57:22;16.00;80.40
39519;DHT22;25200;53.394;10.414;2023-04-15T13:59:48;15.90;80.00
39519;DHT22;25200;53.394;10.414;2023-04-15T14:02:14;15.90;80.00
39519;DHT22;25200;53.394;10.414;2023-04-15T14:04:40;15.90;80.20
39519;DHT22;25200;53.394;10.414;2023-04-15T14:07:06;15.80;79.90
39519;DHT22;25200;53.394;10.414;2023-04-15T14:09:32;15.80;79.70
39519;DHT22;25200;53.394;10.414;2023-04-15T14:11:58;15.80;79.80
39519;DHT22;25200;53.394;10.414;2023-04-15T14:14:24;15.70;79.80
39519;DHT22;25200;53.394;10.414;2023-04-15T14:16:50;15.70;79.60
39519;DHT22;25200;53.394;10.414;2023-04-15T14:19:16;15.70;80.00
39519;DHT22;25200;53.394;10.414;2023-04-15T14:21:41;15.70;80.10
39519;DHT22;25200;53.394;10.414;2023-04-15T14:24:07;15.70;80.70
39519;DHT22;25200;53.394;10.414;2023-04-15T14:26:33;15.70;80.20
39519;DHT22;25200;53.394;10.414;2023-04-15T14:28:59;15.80;80.00
39519;DHT22;25200;53.394;10.414;2023-04-15T14:31:25;15.70;79.80
39519;DHT22;25200;53.394;10.414;2023-04-15T14:33:50;15.70;80.30
39519;DHT22;25200;53.394;10.414;2023-04-15T14:36:16;15.70;79.50
39519;DHT22;25200;53.394;10.414;2023-04-15T14:38:42;15.70;79.90
39519;DHT22;25200;53.394;10.414;2023-04-15T14:41:08;15.70;79.60
39519;DHT22;25200;53.394;10.414;2023-04-15T14:43:34;15.70;79.60
39519;DHT22;25200;53.394;10.414;2023-04-15T14:46:00;15.70;80.10
39519;DHT22;25200;53.394;10.414;2023-04-15T14:48:27;15.70;79.90
39519;DHT22;25200;53.394;10.414;2023-04-15T14:50:52;15.80;80.20
39519;DHT22;25200;53.394;10.414;2023-04-15T14:53:18;15.80;80.10
39519;DHT22;25200;53.394;10.414;2023-04-15T14:55:44;15.80;80.30
39519;DHT22;25200;53.394;10.414;2023-04-15T14:58:10;15.80;79.50
39519;DHT22;25200;53.394;10.414;2023-04-15T15:00:37;15.80;79.20
39519;DHT22;25200;53.394;10.414;2023-04-15T15:03:05;15.70;79.20
39519;DHT22;25200;53.394;10.414;2023-04-15T15:05:37;15.70;79.60
39519;DHT22;25200;53.394;10.414;2023-04-15T15:08:08;15.70;79.90
39519;DHT22;25200;53.394;10.414;2023-04-15T15:10:39;15.80;80.00
39519;DHT22;25200;53.394;10.414;2023-04-15T15:13:07;15.80;79.60
39519;DHT22;25200;53.394;10.414;2023-04-15T15:15:35;15.80;79.90
39519;DHT22;25200;53.394;10.414;2023-04-15T15:18:01;15.80;79.90
39519;DHT22;25200;53.394;10.414;2023-04-15T15:20:27;15.80;79.80
39519;DHT22;25200;53.394;10.414;2023-04-15T15:22:53;15.80;79.70
39519;DHT22;25200;53.394;10.414;2023-04-15T15:25:19;15.80;79.40
39519;DHT22;25200;53.394;10.414;2023-04-15T15:27:45;15.70;79.00
39519;DHT22;25200;53.394;10.414;2023-04-15T15:30:11;15.60;79.40
39519;DHT22;25200;53.394;10.414;2023-04-15T15:32:38;15.60;79.20
39519;DHT22;25200;53.394;10.414;2023-04-15T15:35:05;15.60;79.20
39519;DHT22;25200;53.394;10.414;2023-04-15T15:37:30;15.50;79.50
39519;DHT22;25200;53.394;10.414;2023-04-15T15:39:56;15.50;79.20
39519;DHT22;25200;53.394;10.414;2023-04-15T15:42:22;15.40;79.00
39519;DHT22;25200;53.394;10.414;2023-04-15T15:44:48;15.40;78.90
39519;DHT22;25200;53.394;10.414;2023-04-15T15:47:15;15.30;79.10
39519;DHT22;25200;53.394;10.414;2023-04-15T15:49:40;15.30;79.10
39519;DHT22;25200;53.394;10.414;2023-04-15T15:52:06;15.20;78.80